Time;durP1;ratioP1;P1;durP2;ratioP2;P2;SDS_P1;SDS_P2;PMS_P1;PMS_P2;Temp;Humidity;BMP_temperature;BMP_pressure;BME280_temperature;BME280_humidity;BME280_pressure;Samples;Min_cycle;Max_cycle;Signal;HPM_P1;HPM_P2
2021/01/31 00:00:44;;;;;;;38.63;16.65;;;;;;;-2.64;80.41;98935.44;1732090;81;25738;-57
2021/01/31 00:03:22;;;;;;;28.02;14.78;;;;;;;-2.63;80.35;98936.52;1727152;81;26192;-57
2021/01/31 00:05:51;;;;;;;28.25;14.23;;;;;;;-2.63;80.33;98941.81;1727387;82;25723;-55
2021/01/31 00:08:21;;;;;;;30.60;14.30;;;;;;;-2.63;80.27;98945.78;1727224;82;25705;-55
2021/01/31 00:10:49;;;;;;;27.35;13.32;;;;;;;-2.59;80.39;98947.92;1727337;82;25855;-56
2021/01/31 00:13:17;;;;;;;33.98;17.15;;;;;;;-2.59;80.23;98950.58;1727353;82;25990;-57
2021/01/31 00:15:47;;;;;;;29.80;16.30;;;;;;;-2.58;80.21;98954.83;1727174;82;25762;-57
2021/01/31 00:18:18;;;;;;;26.90;13.40;;;;;;;-2.55;80.21;98959.09;1727291;82;25738;-56
2021/01/31 00:20:48;;;;;;;29.30;13.80;;;;;;;-2.59;80.01;98958.52;1727241;82;25685;-53
2021/01/31 00:23:15;;;;;;;28.80;14.45;;;;;;;-2.60;80.00;98955.08;1727155;82;25763;-56
2021/01/31 00:25:43;;;;;;;27.10;12.95;;;;;;;-2.63;79.85;98964.84;1727388;82;25823;-57
2021/01/31 00:28:11;;;;;;;29.30;13.45;;;;;;;-2.61;80.06;98968.56;1727455;82;26659;-58
2021/01/31 00:30:42;;;;;;;36.60;16.77;;;;;;;-2.59;79.97;98963.28;1727495;82;25747;-56
2021/01/31 00:33:14;;;;;;;29.27;12.20;;;;;;;-2.60;79.85;98972.83;1727304;82;25725;-56
2021/01/31 00:35:41;;;;;;;26.70;13.32;;;;;;;-2.63;79.70;98974.91;1727453;82;26450;-56
2021/01/31 00:38:11;;;;;;;31.42;13.80;;;;;;;-2.61;79.70;98981.80;1727276;82;25759;-54
2021/01/31 00:40:38;;;;;;;25.35;11.95;;;;;;;-2.67;79.44;98983.62;1727398;82;25738;-53
2021/01/31 00:43:05;;;;;;;26.20;12.30;;;;;;;-2.72;79.41;98982.27;1725412;82;44965;-52
2021/01/31 00:45:32;;;;;;;27.93;12.78;;;;;;;-2.74;79.50;98987.81;1727278;82;26000;-49
2021/01/31 00:47:59;;;;;;;28.17;15.63;;;;;;;-2.72;79.60;98989.67;1727284;82;26068;-54
2021/01/31 00:50:31;;;;;;;30.12;13.65;;;;;;;-2.73;79.47;98992.57;1727395;82;25714;-56
2021/01/31 00:52:58;;;;;;;25.65;11.75;;;;;;;-2.76;79.41;98987.24;1727047;82;26034;-55
2021/01/31 00:55:25;;;;;;;24.12;11.57;;;;;;;-2.72;79.45;98992.85;1726994;82;25809;-52
2021/01/31 00:57:52;;;;;;;23.62;11.85;;;;;;;-2.74;79.31;98991.78;1727391;82;26336;-55
2021/01/31 01:00:29;;;;;;;24.27;10.68;;;;;;;-2.78;79.15;98998.61;1727060;82;25759;-53
2021/01/31 01:02:57;;;;;;;24.95;11.10;;;;;;;-2.83;79.08;99002.54;1732678;81;25845;-52
2021/01/31 01:05:27;;;;;;;25.65;11.63;;;;;;;-2.80;79.24;99003.90;1733195;82;26659;-55
2021/01/31 01:07:54;;;;;;;21.37;10.08;;;;;;;-2.79;79.41;98989.59;1732851;82;25668;-56
2021/01/31 01:10:26;;;;;;;24.47;11.10;;;;;;;-2.78;79.19;98997.29;1733026;82;25731;-56
2021/01/31 01:12:53;;;;;;;30.43;11.55;;;;;;;-2.77;79.22;98997.58;1733007;82;25592;-57
2021/01/31 01:15:24;;;;;;;27.07;12.23;;;;;;;-2.76;79.21;98995.72;1732966;82;26359;-54
2021/01/31 01:17:51;;;;;;;24.32;10.50;;;;;;;-2.75;79.12;99001.30;1733212;82;25899;-54
2021/01/31 01:20:18;;;;;;;30.00;11.65;;;;;;;-2.79;78.88;98999.69;1732917;82;25810;-53
2021/01/31 01:22:45;;;;;;;24.40;10.00;;;;;;;-2.80;78.91;98999.39;1733015;82;25761;-54
2021/01/31 01:25:16;;;;;;;20.00;8.78;;;;;;;-2.84;78.70;99004.93;1733174;82;25820;-56
2021/01/31 01:27:43;;;;;;;21.93;9.75;;;;;;;-2.88;78.68;99011.26;1733118;82;25625;-56
2021/01/31 01:30:15;;;;;;;23.55;9.40;;;;;;;-2.89;78.83;99009.65;1732864;82;25913;-57
2021/01/31 01:32:42;;;;;;;25.15;10.28;;;;;;;-2.87;78.91;99014.69;1733080;82;25782;-56
2021/01/31 01:35:11;;;;;;;22.27;9.28;;;;;;;-2.91;78.60;99010.43;1733308;82;25758;-53
2021/01/31 01:37:38;;;;;;;20.68;10.05;;;;;;;-2.91;78.75;99010.94;1733120;82;25677;-56
2021/01/31 01:40:09;;;;;;;20.05;9.85;;;;;;;-2.92;78.73;99010.68;1733215;82;25581;-55
2021/01/31 01:42:36;;;;;;;22.70;10.55;;;;;;;-2.95;78.40;99009.86;1731033;82;27537;-56
2021/01/31 01:45:04;;;;;;;23.38;9.10;;;;;;;-3.00;78.43;99006.62;1732881;82;25988;-55
2021/01/31 01:47:31;;;;;;;30.02;15.98;;;;;;;-3.04;78.36;99019.56;1733039;82;25750;-57
2021/01/31 01:50:03;;;;;;;25.45;12.28;;;;;;;-3.07;78.41;99021.38;1733090;82;26567;-56
2021/01/31 01:52:36;;;;;;;21.97;9.18;;;;;;;-3.10;78.32;99021.91;1732968;82;25803;-55
2021/01/31 01:55:10;;;;;;;21.27;10.23;;;;;;;-3.11;78.35;99024.80;1733144;82;26177;-55
2021/01/31 01:57:55;;;;;;;23.20;9.98;;;;;;;-3.14;78.44;99024.75;1732992;82;26101;-55
2021/01/31 02:00:22;;;;;;;19.37;9.10;;;;;;;-3.14;78.54;99017.35;1732852;82;25834;-56
2021/01/31 02:03:09;;;;;;;23.25;10.58;;;;;;;-3.15;78.33;99025.83;1732885;81;25648;-52
2021/01/31 02:05:38;;;;;;;22.00;10.00;;;;;;;-3.16;78.47;99034.00;1733071;82;25715;-54
2021/01/31 02:08:05;;;;;;;20.82;10.15;;;;;;;-3.14;78.47;99031.91;1733180;82;25779;-55
2021/01/31 02:10:32;;;;;;;22.93;9.35;;;;;;;-3.14;78.25;99035.88;1732773;82;25699;-53
2021/01/31 02:13:02;;;;;;;27.10;9.75;;;;;;;-3.19;78.23;99034.75;1732820;82;26396;-56
2021/01/31 02:15:30;;;;;;;19.23;9.88;;;;;;;-3.22;78.14;99045.86;1733088;82;26235;-52
2021/01/31 02:18:23;;;;;;;20.92;9.10;;;;;;;-3.30;78.05;99044.97;1733022;82;26415;-55
2021/01/31 02:21:30;;;;;;;21.17;9.55;;;;;;;-3.29;78.12;99045.23;1732971;82;25821;-54
2021/01/31 02:24:36;;;;;;;16.05;7.87;;;;;;;-3.28;78.18;99052.12;1732719;82;26298;-56
2021/01/31 02:27:17;;;;;;;21.23;8.45;;;;;;;-3.29;78.17;99051.84;1733035;82;25432;-52
2021/01/31 02:29:52;;;;;;;17.75;7.97;;;;;;;-3.30;78.13;99053.41;1732818;82;25770;-52
2021/01/31 02:32:48;;;;;;;17.87;8.95;;;;;;;-3.33;78.06;99054.72;1732469;82;25612;-55
2021/01/31 02:35:25;;;;;;;21.05;8.33;;;;;;;-3.34;78.13;99049.67;1733021;82;27286;-56
2021/01/31 02:38:13;;;;;;;19.15;8.75;;;;;;;-3.36;77.92;99045.16;1720007;82;25769;-56
2021/01/31 02:40:57;;;;;;;24.82;8.98;;;;;;;-3.41;77.83;99048.53;1732308;82;25797;-57
2021/01/31 02:43:51;;;;;;;22.65;8.65;;;;;;;-3.43;77.80;99049.31;1691803;82;27281;-57
2021/01/31 02:46:29;;;;;;;21.12;9.18;;;;;;;-3.46;77.88;99046.63;1733073;82;25897;-56
2021/01/31 02:49:29;;;;;;;19.65;9.68;;;;;;;-3.50;77.90;99050.82;1732817;81;25971;-55
2021/01/31 02:52:19;;;;;;;21.07;8.60;;;;;;;-3.52;77.80;99046.31;1732800;82;31067;-51
2021/01/31 02:55:06;;;;;;;19.00;10.20;;;;;;;-3.56;77.80;99049.15;1733892;82;26346;-47
2021/01/31 02:57:53;;;;;;;21.52;9.43;;;;;;;-3.60;77.78;99050.70;1733800;82;25748;-45
2021/01/31 03:00:28;;;;;;;18.17;8.23;;;;;;;-3.63;77.87;99050.66;1734523;82;25469;-46
2021/01/31 03:03:11;;;;;;;19.65;9.05;;;;;;;-3.64;77.79;99053.03;1734742;82;25873;-45
2021/01/31 03:05:47;;;;;;;23.90;9.03;;;;;;;-3.65;77.76;99055.92;1735136;81;25413;-47
2021/01/31 03:08:41;;;;;;;20.17;8.35;;;;;;;-3.70;77.77;99057.97;1735125;82;25562;-46
2021/01/31 03:11:19;;;;;;;19.42;8.40;;;;;;;-3.68;77.81;99061.69;1734968;82;25503;-48
2021/01/31 03:14:00;;;;;;;21.90;8.90;;;;;;;-3.72;77.67;99052.14;1735201;82;25573;-47
2021/01/31 03:16:47;;;;;;;20.08;9.95;;;;;;;-3.73;77.67;99060.31;1735125;82;27082;-48
2021/01/31 03:19:47;;;;;;;18.35;8.95;;;;;;;-3.77;77.69;99062.11;1735224;82;25501;-48
2021/01/31 03:22:23;;;;;;;22.85;10.43;;;;;;;-3.79;77.56;99056.81;1735113;82;25331;-48
2021/01/31 03:24:59;;;;;;;20.45;9.13;;;;;;;-3.82;77.47;99054.65;1735120;82;25592;-48
2021/01/31 03:27:34;;;;;;;24.55;9.53;;;;;;;-3.86;77.16;99054.88;1722431;82;25403;-48
2021/01/31 03:30:00;;;;;;;20.05;9.38;;;;;;;-3.90;77.16;99055.06;1735219;82;26966;-46
2021/01/31 03:32:41;;;;;;;18.67;9.50;;;;;;;-3.96;77.14;99058.95;1735163;82;25601;-45
2021/01/31 03:35:14;;;;;;;23.12;9.55;;;;;;;-4.01;77.02;99066.81;1734927;82;25673;-44
2021/01/31 03:37:48;;;;;;;22.25;10.70;;;;;;;-4.06;77.15;99071.23;1735257;82;25574;-45
2021/01/31 03:40:18;;;;;;;20.77;10.05;;;;;;;-4.10;77.11;99065.64;1735106;82;25640;-48
2021/01/31 03:42:45;;;;;;;19.17;9.28;;;;;;;-4.15;77.13;99078.25;1735532;82;32306;-52
2021/01/31 03:45:17;;;;;;;21.20;10.43;;;;;;;-4.19;77.18;99082.42;1735192;82;25612;-49
2021/01/31 03:48:05;;;;;;;21.70;9.43;;;;;;;-4.24;77.19;99080.20;1735404;82;25467;-48
2021/01/31 03:50:33;;;;;;;21.30;10.10;;;;;;;-4.26;77.29;99084.41;1735188;82;25611;-47
2021/01/31 03:53:00;;;;;;;21.55;9.78;;;;;;;-4.30;77.19;99090.42;1735103;82;25569;-48
2021/01/31 03:55:27;;;;;;;23.52;10.30;;;;;;;-4.34;77.23;99093.55;1735133;82;27234;-45
2021/01/31 03:58:01;;;;;;;21.75;11.10;;;;;;;-4.37;77.29;99090.59;1735275;82;25505;-54
2021/01/31 04:00:36;;;;;;;21.07;10.50;;;;;;;-4.40;77.21;99095.81;1735287;82;25553;-56
2021/01/31 04:03:16;;;;;;;19.32;10.15;;;;;;;-4.45;77.21;99107.61;1733668;81;25599;-47
2021/01/31 04:05:54;;;;;;;22.67;10.40;;;;;;;-4.51;77.13;99109.91;1735426;82;25380;-45
2021/01/31 04:08:21;;;;;;;20.60;10.08;;;;;;;-4.58;77.12;99106.09;1735323;82;25719;-54
2021/01/31 04:10:48;;;;;;;20.82;10.28;;;;;;;-4.61;77.34;99101.81;1735231;82;25644;-54
2021/01/31 04:13:16;;;;;;;21.30;10.23;;;;;;;-4.65;77.48;99104.10;1735470;82;25312;-48
2021/01/31 04:15:50;;;;;;;22.42;9.88;;;;;;;-4.66;77.37;99105.69;1735395;82;25533;-55
2021/01/31 04:18:20;;;;;;;21.15;9.30;;;;;;;-4.72;77.25;99104.25;1735359;82;25585;-54
2021/01/31 04:20:47;;;;;;;;;;;;;;;-4.71;77.36;99103.75;1737893;82;25699;-52
2021/01/31 04:23:15;;;;;;;19.95;9.53;;;;;;;-4.75;77.22;99109.20;1735309;82;25561;-58
2021/01/31 04:25:43;;;;;;;19.15;9.13;;;;;;;-4.77;77.48;99108.12;1735242;82;25595;-46
2021/01/31 04:28:21;;;;;;;22.10;9.65;;;;;;;-4.76;77.39;99111.58;1735385;82;25396;-51
2021/01/31 04:30:57;;;;;;;19.37;13.00;;;;;;;-4.75;77.38;99101.28;1835348;76;28411;-55
2021/01/31 04:33:26;;;;;;;20.43;9.75;;;;;;;-4.78;77.37;99112.34;1821491;78;25632;-54
2021/01/31 04:35:54;;;;;;;21.57;9.75;;;;;;;-4.78;77.01;99111.81;1821437;78;26145;-50
2021/01/31 04:38:21;;;;;;;25.37;10.95;;;;;;;-4.79;76.92;99110.72;1821251;78;25480;-53
2021/01/31 04:40:48;;;;;;;22.60;10.23;;;;;;;-4.81;77.04;99116.77;1821410;78;25523;-51
2021/01/31 04:43:18;;;;;;;22.17;10.48;;;;;;;-4.83;77.10;99122.27;1821319;78;25500;-56
2021/01/31 04:45:47;;;;;;;19.10;9.65;;;;;;;-4.85;77.21;99120.39;1821444;78;25526;-46
2021/01/31 04:48:34;;;;;;;23.10;10.50;;;;;;;-4.88;77.16;99120.34;1821534;78;25953;-56
2021/01/31 04:51:46;;;;;;;21.17;10.35;;;;;;;-4.95;76.89;99125.48;1821068;78;25325;-47
2021/01/31 04:54:48;;;;;;;20.37;10.23;;;;;;;-5.04;76.79;99128.98;1821356;78;25531;-56
2021/01/31 04:57:30;;;;;;;22.05;10.43;;;;;;;-5.13;76.85;99137.00;1821340;78;25565;-51
2021/01/31 05:00:00;;;;;;;22.05;10.28;;;;;;;-5.24;76.89;99139.96;1821458;78;25497;-56
2021/01/31 05:02:38;;;;;;;23.60;11.30;;;;;;;-5.31;77.03;99139.27;1821514;78;25673;-54
2021/01/31 05:05:19;;;;;;;22.45;10.50;;;;;;;-5.38;77.24;99136.79;1821233;78;25587;-46
2021/01/31 05:07:58;;;;;;;21.82;10.78;;;;;;;-5.40;77.45;99138.83;1821297;78;25476;-53
2021/01/31 05:10:26;;;;;;;;;;;;;;;-5.42;77.62;99141.43;1823991;78;25770;-56
2021/01/31 05:13:19;;;;;;;22.98;10.72;;;;;;;-5.42;77.55;99142.75;1821394;78;25581;-55
2021/01/31 05:16:10;;;;;;;25.00;11.03;;;;;;;-5.47;77.59;99144.23;1820926;78;25929;-56
2021/01/31 05:18:42;;;;;;;24.70;11.18;;;;;;;-5.53;77.63;99146.48;1821391;78;25565;-56
2021/01/31 05:21:12;;;;;;;25.23;11.40;;;;;;;-5.56;77.74;99152.73;1821133;78;25665;-51
2021/01/31 05:23:43;;;;;;;21.97;11.15;;;;;;;-5.59;77.96;99156.63;1820959;78;25403;-53
2021/01/31 05:26:11;;;;;;;27.02;11.53;;;;;;;-5.58;78.17;99158.23;1821340;78;25318;-44
2021/01/31 05:28:42;;;;;;;25.88;11.25;;;;;;;-5.55;78.38;99159.09;1821281;78;25681;-47
2021/01/31 05:31:12;;;;;;;19.37;10.30;;;;;;;-5.53;78.39;99161.51;1799687;78;25548;-47
2021/01/31 05:33:59;;;;;;;26.48;10.93;;;;;;;-5.52;78.41;99171.00;1827534;78;25368;-50
2021/01/31 05:36:31;;;;;;;27.55;11.70;;;;;;;-5.53;78.42;99168.89;1827580;78;25574;-55
2021/01/31 05:38:59;;;;;;;24.12;10.63;;;;;;;-5.51;78.52;99177.36;1827738;78;25337;-51
2021/01/31 05:41:47;;;;;;;25.45;11.08;;;;;;;-5.51;78.49;99177.88;1827234;78;25896;-44
2021/01/31 05:44:25;;;;;;;22.82;11.00;;;;;;;-5.51;78.42;99179.20;1827038;78;25515;-49
2021/01/31 05:46:57;;;;;;;21.60;9.70;;;;;;;-5.53;78.44;99178.11;1827097;78;26260;-55
2021/01/31 05:49:40;;;;;;;24.72;10.65;;;;;;;-5.52;78.48;99186.28;1827058;78;25617;-54
2021/01/31 05:52:28;;;;;;;26.93;10.88;;;;;;;-5.52;78.49;99185.48;1827240;78;25545;-54
2021/01/31 05:54:57;;;;;;;24.12;9.85;;;;;;;-5.52;78.40;99191.55;1827184;78;25689;-54
2021/01/31 05:57:34;;;;;;;21.63;8.47;;;;;;;-5.54;78.39;99187.03;1827183;78;25657;-56
2021/01/31 06:00:18;;;;;;;23.00;10.75;;;;;;;-5.50;78.58;99183.42;1827117;78;25392;-55
2021/01/31 06:03:05;;;;;;;18.73;9.60;;;;;;;-5.48;78.49;99182.70;1825441;78;25537;-57
2021/01/31 06:05:32;;;;;;;24.50;9.73;;;;;;;-5.50;78.25;99181.61;1827101;78;25547;-46
2021/01/31 06:08:26;;;;;;;24.55;9.43;;;;;;;-5.51;78.25;99187.90;1791082;80;27989;-44
2021/01/31 06:11:09;;;;;;;22.77;9.78;;;;;;;-5.52;78.22;99184.97;1762977;81;25604;-43
2021/01/31 06:13:38;;;;;;;20.88;9.90;;;;;;;-5.52;78.13;99194.19;1763464;81;25535;-52
2021/01/31 06:16:10;;;;;;;16.30;7.17;;;;;;;-5.51;78.20;99196.33;1763564;81;25461;-55
2021/01/31 06:18:48;;;;;;;23.18;9.78;;;;;;;-5.50;78.28;99190.83;1770278;80;25600;-56
2021/01/31 06:21:19;;;;;;;20.68;9.15;;;;;;;-5.46;78.33;99188.01;1771103;80;25837;-56
2021/01/31 06:23:52;;;;;;;20.43;9.35;;;;;;;-5.40;78.49;99200.77;1772104;80;25515;-57
2021/01/31 06:26:25;;;;;;;19.02;8.88;;;;;;;-5.34;78.50;99198.54;1772039;80;25519;-56
2021/01/31 06:29:22;;;;;;;23.05;9.10;;;;;;;-5.30;78.43;99197.56;1771824;80;25362;-45
2021/01/31 06:32:15;;;;;;;21.42;10.80;;;;;;;-5.27;78.28;99199.22;1772026;80;25502;-56
2021/01/31 06:34:50;;;;;;;21.90;8.80;;;;;;;-5.27;78.03;99204.48;1762697;80;25800;-56
2021/01/31 06:38:03;;;;;;;25.20;9.63;;;;;;;-5.30;77.86;99207.58;1754268;81;25607;-47
2021/01/31 06:40:52;;;;;;;22.85;10.55;;;;;;;-5.35;77.65;99205.36;1772098;80;25644;-56
2021/01/31 06:43:43;;;;;;;22.07;10.95;;;;;;;-5.44;77.47;99198.32;1772285;80;25407;-54
2021/01/31 06:46:18;;;;;;;22.42;10.13;;;;;;;-5.48;77.57;99208.53;1771974;81;25610;-44
2021/01/31 06:48:50;;;;;;;23.98;10.50;;;;;;;-5.52;77.42;99208.69;1772093;80;25909;-52
2021/01/31 06:51:31;;;;;;;23.22;9.88;;;;;;;-5.56;77.46;99218.09;1771887;80;25565;-49
2021/01/31 06:54:39;;;;;;;23.42;10.38;;;;;;;-5.61;77.42;99216.66;1771963;80;25343;-57
2021/01/31 06:57:43;;;;;;;26.00;10.38;;;;;;;-5.64;77.44;99217.11;1771978;80;25505;-57
2021/01/31 07:00:27;;;;;;;22.70;10.38;;;;;;;-5.65;77.57;99215.52;1771624;80;25440;-46
2021/01/31 07:03:39;;;;;;;24.10;9.73;;;;;;;-5.63;77.70;99208.19;1771948;80;26247;-49
2021/01/31 07:06:38;;;;;;;24.00;8.95;;;;;;;-5.63;77.72;99215.56;1771960;80;25516;-56
2021/01/31 07:09:16;;;;;;;16.32;6.75;;;;;;;-5.57;77.93;99227.02;1771265;80;25508;-56
2021/01/31 07:12:08;;;;;;;17.32;7.97;;;;;;;-5.50;77.96;99229.05;1770425;80;25492;-56
2021/01/31 07:15:06;;;;;;;18.57;8.33;;;;;;;-5.45;77.95;99240.20;1771981;80;25505;-56
2021/01/31 07:17:57;;;;;;;11.60;5.97;;;;;;;-5.38;77.92;99251.45;1772361;80;26629;-54
2021/01/31 07:20:32;;;;;;;25.23;8.80;;;;;;;-5.35;77.86;99250.17;1771874;80;25563;-42
2021/01/31 07:23:19;;;;;;;20.35;8.13;;;;;;;-5.31;77.88;99254.77;1753224;81;25418;-54
2021/01/31 07:25:57;;;;;;;22.07;8.40;;;;;;;-5.25;77.92;99258.30;1772054;80;25575;-56
2021/01/31 07:28:38;;;;;;;21.55;9.08;;;;;;;-5.13;78.23;99264.89;1771964;80;25466;-44
2021/01/31 07:31:26;;;;;;;19.80;8.63;;;;;;;-4.96;78.40;99265.77;1771034;80;25779;-54
2021/01/31 07:34:17;;;;;;;14.50;7.55;;;;;;;-4.78;78.29;99271.44;1781362;80;25333;-56
2021/01/31 07:37:14;;;;;;;22.10;8.93;;;;;;;-4.46;78.21;99277.61;1888062;76;29815;-53
2021/01/31 07:40:01;;;;;;;17.92;8.33;;;;;;;-4.35;78.69;99275.42;1859111;77;25576;-56
2021/01/31 07:42:31;;;;;;;18.07;8.93;;;;;;;-4.09;78.21;99278.53;1858310;77;26136;-48
2021/01/31 07:45:12;;;;;;;24.70;9.30;;;;;;;-3.92;77.76;99272.48;1858740;77;25572;-47
2021/01/31 07:47:39;;;;;;;26.23;10.95;;;;;;;-3.74;77.82;99281.52;1859160;77;25566;-54
2021/01/31 07:50:10;;;;;;;18.05;9.38;;;;;;;-3.58;77.70;99280.70;1858971;77;25393;-56
2021/01/31 07:52:56;;;;;;;27.85;10.13;;;;;;;-3.35;77.40;99276.80;1859185;77;25522;-56
2021/01/31 07:55:42;;;;;;;17.82;8.70;;;;;;;-2.96;78.02;99273.67;1858975;77;25831;-57
2021/01/31 07:58:27;;;;;;;21.87;8.98;;;;;;;-2.59;77.80;99278.34;1858896;77;25565;-50
2021/01/31 08:00:55;;;;;;;20.10;9.15;;;;;;;-2.07;78.57;99279.18;1858419;77;25609;-56
2021/01/31 08:03:30;;;;;;;15.88;7.47;;;;;;;-1.53;78.79;99274.89;1858994;77;25512;-47
2021/01/31 08:06:20;;;;;;;18.30;8.95;;;;;;;-1.18;76.71;99276.17;1858911;77;25527;-43
2021/01/31 08:08:50;;;;;;;16.75;7.92;;;;;;;-0.80;75.78;99278.23;1858783;77;26237;-46
2021/01/31 08:11:22;;;;;;;17.32;7.80;;;;;;;-0.65;74.56;99275.64;1858950;77;25564;-56
2021/01/31 08:13:51;;;;;;;16.37;8.25;;;;;;;-0.31;75.05;99279.76;1859058;77;25538;-56
2021/01/31 08:16:49;;;;;;;16.20;8.33;;;;;;;-0.02;74.61;99274.25;1859161;77;25554;-46
2021/01/31 08:19:24;;;;;;;15.53;8.23;;;;;;;0.32;73.68;99287.57;1856394;77;25363;-56
2021/01/31 08:21:56;;;;;;;15.88;7.65;;;;;;;0.68;74.07;99291.55;1859047;77;25755;-48
2021/01/31 08:25:01;;;;;;;18.45;8.85;;;;;;;0.98;72.94;99289.38;1858860;77;25341;-53
2021/01/31 08:28:04;;;;;;;16.87;8.73;;;;;;;1.27;72.25;99292.77;1859024;77;25506;-46
2021/01/31 08:30:41;;;;;;;21.87;8.93;;;;;;;1.73;71.54;99307.78;1858877;77;25604;-57
2021/01/31 08:33:31;;;;;;;18.82;8.60;;;;;;;2.04;70.83;99305.22;1854247;77;25432;-58
2021/01/31 08:36:25;;;;;;;19.23;9.05;;;;;;;2.21;69.68;99302.70;1846498;77;26942;-56
2021/01/31 08:38:55;;;;;;;20.90;9.55;;;;;;;2.41;68.69;99308.44;1805266;78;25673;-57
2021/01/31 08:41:41;;;;;;;16.25;8.90;;;;;;;2.78;68.85;99313.20;1800620;79;25376;-56
2021/01/31 08:44:13;;;;;;;16.77;8.98;;;;;;;3.08;68.19;99315.86;1800846;78;25582;-59
2021/01/31 08:47:01;;;;;;;19.65;10.28;;;;;;;3.29;68.03;99324.47;1800199;79;25373;-59
2021/01/31 08:49:29;;;;;;;20.00;9.23;;;;;;;3.52;68.45;99321.52;1800220;79;26653;-57
2021/01/31 08:52:12;;;;;;;17.98;8.73;;;;;;;3.89;70.08;99323.47;1799875;79;25777;-56
2021/01/31 08:54:40;;;;;;;17.62;8.93;;;;;;;4.07;68.90;99322.42;1800251;79;25575;-59
2021/01/31 08:57:12;;;;;;;13.95;8.83;;;;;;;4.04;66.65;99325.70;1800151;79;25499;-57
2021/01/31 08:59:47;;;;;;;15.88;9.15;;;;;;;4.16;69.09;99329.28;1798690;79;25550;-58
2021/01/31 09:02:19;;;;;;;16.45;8.55;;;;;;;4.12;67.61;99323.72;1800277;79;25969;-57
2021/01/31 09:04:57;;;;;;;14.95;8.35;;;;;;;4.22;64.42;99326.25;1800245;79;25581;-56
2021/01/31 09:07:29;;;;;;;14.73;8.65;;;;;;;4.09;66.21;99328.30;1804255;76;25986;-57
2021/01/31 09:10:04;;;;;;;16.07;9.08;;;;;;;4.00;64.23;99334.85;1830174;76;25625;-58
2021/01/31 09:12:31;;;;;;;16.07;8.85;;;;;;;3.90;64.99;99330.97;1839429;76;25589;-57
2021/01/31 09:15:08;;;;;;;15.98;9.53;;;;;;;4.04;62.24;99337.19;1848535;77;26344;-58
2021/01/31 09:17:35;;;;;;;18.65;8.35;;;;;;;3.84;65.53;99344.94;1847808;77;25650;-57
2021/01/31 09:20:21;;;;;;;13.30;8.03;;;;;;;3.81;64.33;99342.83;1848726;77;25624;-58
2021/01/31 09:22:49;;;;;;;14.07;7.95;;;;;;;3.63;64.37;99347.08;1848405;77;25432;-57
2021/01/31 09:25:20;;;;;;;15.53;8.90;;;;;;;3.58;62.54;99347.14;1849034;77;25651;-56
2021/01/31 09:28:07;;;;;;;15.95;7.90;;;;;;;3.48;61.87;99346.70;1848636;77;26161;-59
2021/01/31 09:30:35;;;;;;;13.85;8.00;;;;;;;3.34;61.85;99352.48;1776808;80;25714;-63
2021/01/31 09:33:29;;;;;;;14.85;8.60;;;;;;;3.24;59.00;99365.95;1789287;80;25351;-59
2021/01/31 09:35:55;;;;;;;14.93;8.83;;;;;;;3.01;61.85;99359.48;1788078;80;25375;-59
2021/01/31 09:38:28;;;;;;;15.53;8.70;;;;;;;3.02;64.08;99354.41;1770921;81;25629;-58
2021/01/31 09:41:00;;;;;;;18.10;9.20;;;;;;;3.30;63.19;99362.95;1786201;80;25696;-57
2021/01/31 09:43:31;;;;;;;14.30;8.68;;;;;;;3.25;61.17;99361.66;1770990;81;25722;-54
2021/01/31 09:46:01;;;;;;;16.42;9.30;;;;;;;3.53;62.06;99366.70;1786260;80;25651;-53
2021/01/31 09:48:31;;;;;;;16.60;8.70;;;;;;;3.89;60.54;99370.84;1757445;80;25528;-55
2021/01/31 09:51:05;;;;;;;14.23;8.45;;;;;;;4.11;58.26;99365.72;1786221;80;25607;-53
2021/01/31 09:53:41;;;;;;;14.78;7.75;;;;;;;4.11;59.52;99366.27;1785945;80;26739;-57
2021/01/31 09:56:32;;;;;;;14.90;7.72;;;;;;;4.53;55.52;99369.97;1786090;80;25646;-54
2021/01/31 09:59:00;;;;;;;13.68;7.33;;;;;;;4.68;57.69;99368.39;1770970;81;25372;-55
2021/01/31 10:01:29;;;;;;;13.78;7.85;;;;;;;4.94;55.58;99361.80;1786270;80;25590;-56
2021/01/31 10:04:05;;;;;;;19.50;8.35;;;;;;;5.14;53.02;99374.89;1786472;79;25597;-51
2021/01/31 10:06:45;;;;;;;15.13;7.67;;;;;;;5.15;54.05;99372.44;1785985;80;26411;-53
2021/01/31 10:09:11;;;;;;;15.70;7.95;;;;;;;5.58;52.88;99378.91;1786188;79;25407;-52
2021/01/31 10:11:42;;;;;;;12.88;8.20;;;;;;;5.58;52.88;99378.91;1770060;81;26079;-53
2021/01/31 10:14:34;;;;;;;13.83;7.72;;;;;;;5.60;50.77;99374.56;1785808;80;25662;-51
2021/01/31 10:17:20;;;;;;;14.90;8.28;;;;;;;5.79;52.14;99383.87;1754572;81;25640;-52
2021/01/31 10:20:35;;;;;;;12.80;7.50;;;;;;;6.19;52.43;99366.69;1857614;75;34458;-52
2021/01/31 10:23:15;;;;;;;14.25;8.53;;;;;;;6.75;54.74;99379.39;1824751;77;25682;-51
2021/01/31 10:25:58;;;;;;;14.98;8.58;;;;;;;7.31;50.76;99385.83;1823586;78;25839;-51
2021/01/31 10:28:39;;;;;;;12.80;7.90;;;;;;;7.40;51.89;99372.64;1822641;78;25736;-51
2021/01/31 10:31:06;;;;;;;13.40;8.43;;;;;;;8.15;53.46;99379.44;1823646;78;25822;-55
2021/01/31 10:33:50;;;;;;;15.80;8.58;;;;;;;8.44;48.35;99372.67;1823888;78;25775;-52
2021/01/31 10:36:33;;;;;;;13.45;8.40;;;;;;;8.25;47.10;99374.30;1823676;78;25847;-49
2021/01/31 10:39:14;;;;;;;11.43;7.78;;;;;;;7.76;44.63;99384.34;1823631;76;26151;-53
2021/01/31 10:41:44;;;;;;;16.35;9.23;;;;;;;7.38;44.44;99381.58;1823574;78;25991;-51
2021/01/31 10:44:15;;;;;;;15.13;8.78;;;;;;;7.51;46.63;99377.75;1824110;78;25693;-52
2021/01/31 10:46:42;;;;;;;14.75;9.18;;;;;;;7.64;47.50;99380.36;1821215;78;25630;-52
2021/01/31 10:49:09;;;;;;;12.85;8.40;;;;;;;7.79;46.98;99380.47;1819039;78;25603;-50
2021/01/31 10:51:36;;;;;;;14.85;8.58;;;;;;;7.97;46.64;99381.88;1823806;78;25887;-53
2021/01/31 10:54:04;;;;;;;13.45;8.28;;;;;;;7.99;46.23;99385.83;1823889;78;25389;-54
2021/01/31 10:56:31;;;;;;;14.85;9.23;;;;;;;7.81;43.21;99397.09;1823941;78;25815;-51
2021/01/31 10:58:58;;;;;;;14.70;8.95;;;;;;;7.35;45.96;99394.86;1823822;78;25779;-53
2021/01/31 11:01:24;;;;;;;14.83;9.10;;;;;;;7.39;44.17;99392.59;1823934;78;25966;-49
2021/01/31 11:03:51;;;;;;;13.62;9.08;;;;;;;7.29;44.96;99394.20;1823977;78;25695;-54
2021/01/31 11:06:20;;;;;;;13.72;8.73;;;;;;;7.34;44.02;99395.42;1823616;78;25717;-54
2021/01/31 11:08:49;;;;;;;14.23;9.08;;;;;;;7.56;45.13;99393.76;1823802;78;25817;-56
2021/01/31 11:11:17;;;;;;;17.82;10.48;;;;;;;7.81;45.73;99399.78;1823090;78;25663;-53
2021/01/31 11:13:44;;;;;;;18.95;10.70;;;;;;;8.08;45.68;99402.00;1824023;78;25683;-56
2021/01/31 11:16:11;;;;;;;16.75;10.58;;;;;;;8.30;44.42;99396.27;1823964;78;26635;-56
2021/01/31 11:18:38;;;;;;;16.82;9.80;;;;;;;8.51;45.24;99399.16;1831758;77;25483;-55
2021/01/31 11:21:05;;;;;;;19.40;10.75;;;;;;;8.55;43.81;99398.22;1852615;77;25610;-56
2021/01/31 11:23:32;;;;;;;19.35;11.18;;;;;;;8.54;42.73;99385.05;1852881;77;25709;-54
2021/01/31 11:25:59;;;;;;;19.20;11.00;;;;;;;8.77;44.83;99385.13;1852524;77;26118;-54
2021/01/31 11:28:25;;;;;;;13.83;9.63;;;;;;;9.25;45.40;99381.16;1852734;77;26398;-51
2021/01/31 11:30:52;;;;;;;18.52;10.93;;;;;;;9.50;44.34;99388.38;1852236;77;25774;-56
2021/01/31 11:33:19;;;;;;;16.17;10.35;;;;;;;9.67;44.20;99384.81;1852216;77;25915;-55
2021/01/31 11:35:45;;;;;;;23.73;14.07;;;;;;;9.85;42.58;99386.07;1852041;77;25680;-56
2021/01/31 11:38:12;;;;;;;17.02;10.25;;;;;;;9.65;42.02;99382.19;1807702;77;25699;-55
2021/01/31 11:40:39;;;;;;;16.23;9.73;;;;;;;9.16;42.24;99371.74;1830677;78;25684;-55
2021/01/31 11:43:06;;;;;;;18.45;11.30;;;;;;;9.02;44.21;99365.73;1834991;78;25728;-56
2021/01/31 11:45:33;;;;;;;16.87;10.43;;;;;;;9.01;44.30;99366.83;1834790;78;26214;-55
2021/01/31 11:47:59;;;;;;;16.27;10.82;;;;;;;9.06;45.39;99369.36;1832040;78;25739;-56
2021/01/31 11:50:26;;;;;;;17.60;10.63;;;;;;;9.24;45.41;99370.91;1821063;78;25703;-56
2021/01/31 11:52:53;;;;;;;17.65;9.75;;;;;;;8.94;42.68;99361.95;1782540;80;25795;-56
2021/01/31 11:55:20;;;;;;;25.40;14.55;;;;;;;8.39;42.41;99365.53;1752798;81;25620;-56
2021/01/31 11:57:47;;;;;;;22.10;13.22;;;;;;;7.90;42.90;99369.41;1735665;82;27056;-55
2021/01/31 12:00:17;;;;;;;18.57;11.65;;;;;;;7.62;44.65;99371.00;1782354;80;25812;-56
2021/01/31 12:02:45;;;;;;;19.40;11.80;;;;;;;7.53;44.77;99371.53;1782394;80;25605;-56
2021/01/31 12:05:17;;;;;;;20.12;12.50;;;;;;;7.59;44.55;99371.61;1782424;80;26655;-56